sensor_id;sensor_type;location;lat;lon;timestamp;temperature;humidity
15991;DHT22;8100;50.994;4.538;2024-02-23T00:00:43;5.40;1.00
15991;DHT22;8100;50.994;4.538;2024-02-23T00:03:30;5.50;1.00
15991;DHT22;8100;50.994;4.538;2024-02-23T00:06:17;5.40;1.00
15991;DHT22;8100;50.994;4.538;2024-02-23T00:09:04;5.40;1.00
15991;DHT22;8100;50.994;4.538;2024-02-23T00:11:52;5.30;1.00
15991;DHT22;8100;50.994;4.538;2024-02-23T00:14:41;5.30;1.00
15991;DHT22;8100;50.994;4.538;2024-02-23T00:17:27;5.40;1.00
15991;DHT22;8100;50.994;4.538;2024-02-23T00:20:14;5.40;1.00
15991;DHT22;8100;50.994;4.538;2024-02-23T00:23:02;5.40;1.00
15991;DHT22;8100;50.994;4.538;2024-02-23T00:25:49;5.40;1.00
15991;DHT22;8100;50.994;4.538;2024-02-23T00:28:36;5.40;1.00
15991;DHT22;8100;50.994;4.538;2024-02-23T00:31:24;5.40;1.00
15991;DHT22;8100;50.994;4.538;2024-02-23T00:34:11;5.40;1.00
15991;DHT22;8100;50.994;4.538;2024-02-23T00:36:59;5.50;1.00
15991;DHT22;8100;50.994;4.538;2024-02-23T00:39:46;5.50;1.00
15991;DHT22;8100;50.994;4.538;2024-02-23T00:42:33;5.50;1.00
15991;DHT22;8100;50.994;4.538;2024-02-23T00:45:20;5.50;1.00
15991;DHT22;8100;50.994;4.538;2024-02-23T00:48:08;5.50;1.00
15991;DHT22;8100;50.994;4.538;2024-02-23T00:50:56;5.50;1.00
15991;DHT22;8100;50.994;4.538;2024-02-23T00:53:43;5.40;1.00
15991;DHT22;8100;50.994;4.538;2024-02-23T00:56:33;5.40;1.00
15991;DHT22;8100;50.994;4.538;2024-02-23T00:59:19;5.30;1.00
15991;DHT22;8100;50.994;4.538;2024-02-23T01:02:06;5.30;1.00
15991;DHT22;8100;50.994;4.538;2024-02-23T01:04:55;5.20;1.00
15991;DHT22;8100;50.994;4.538;2024-02-23T01:07:44;5.20;1.00
15991;DHT22;8100;50.994;4.538;2024-02-23T01:10:31;5.20;1.00
15991;DHT22;8100;50.994;4.538;2024-02-23T01:13:18;5.10;1.00
15991;DHT22;8100;50.994;4.538;2024-02-23T01:16:05;5.00;1.00
15991;DHT22;8100;50.994;4.538;2024-02-23T01:18:53;5.00;1.00
15991;DHT22;8100;50.994;4.538;2024-02-23T01:21:42;5.00;1.00
15991;DHT22;8100;50.994;4.538;2024-02-23T01:24:29;5.00;1.00
15991;DHT22;8100;50.994;4.538;2024-02-23T01:27:15;5.00;1.00
15991;DHT22;8100;50.994;4.538;2024-02-23T01:30:05;5.00;1.00
15991;DHT22;8100;50.994;4.538;2024-02-23T01:32:52;4.90;1.00
15991;DHT22;8100;50.994;4.538;2024-02-23T01:35:39;4.90;1.00
15991;DHT22;8100;50.994;4.538;2024-02-23T01:38:27;4.90;1.00
15991;DHT22;8100;50.994;4.538;2024-02-23T01:41:18;5.00;1.00
15991;DHT22;8100;50.994;4.538;2024-02-23T01:44:05;5.00;1.00
15991;DHT22;8100;50.994;4.538;2024-02-23T01:46:51;4.90;1.00
15991;DHT22;8100;50.994;4.538;2024-02-23T01:49:38;5.00;1.00
15991;DHT22;8100;50.994;4.538;2024-02-23T01:52:26;5.00;1.00
15991;DHT22;8100;50.994;4.538;2024-02-23T01:55:14;5.00;1.00
15991;DHT22;8100;50.994;4.538;2024-02-23T01:58:01;5.00;1.00
15991;DHT22;8100;50.994;4.538;2024-02-23T02:00:48;4.90;1.00
15991;DHT22;8100;50.994;4.538;2024-02-23T02:03:37;5.00;1.00
15991;DHT22;8100;50.994;4.538;2024-02-23T02:06:24;4.90;1.00
15991;DHT22;8100;50.994;4.538;2024-02-23T02:09:11;4.90;1.00
15991;DHT22;8100;50.994;4.538;2024-02-23T02:12:00;5.00;1.00
15991;DHT22;8100;50.994;4.538;2024-02-23T02:14:47;5.00;1.00
15991;DHT22;8100;50.994;4.538;2024-02-23T02:17:34;5.00;1.00
15991;DHT22;8100;50.994;4.538;2024-02-23T02:20:24;4.90;1.00
15991;DHT22;8100;50.994;4.538;2024-02-23T02:23:11;4.80;1.00
15991;DHT22;8100;50.994;4.538;2024-02-23T02:25:59;4.80;1.00
15991;DHT22;8100;50.994;4.538;2024-02-23T02:28:47;4.70;70.10
15991;DHT22;8100;50.994;4.538;2024-02-23T02:31:34;4.70;99.90
15991;DHT22;8100;50.994;4.538;2024-02-23T02:34:22;4.70;99.90
15991;DHT22;8100;50.994;4.538;2024-02-23T02:37:09;4.80;99.90
15991;DHT22;8100;50.994;4.538;2024-02-23T02:39:56;4.70;99.90
15991;DHT22;8100;50.994;4.538;2024-02-23T02:42:43;4.80;99.90
15991;DHT22;8100;50.994;4.538;2024-02-23T02:45:32;4.80;53.20
15991;DHT22;8100;50.994;4.538;2024-02-23T02:48:19;4.90;7.40
15991;DHT22;8100;50.994;4.538;2024-02-23T02:51:05;4.90;1.00
15991;DHT22;8100;50.994;4.538;2024-02-23T02:53:52;4.90;1.00
15991;DHT22;8100;50.994;4.538;2024-02-23T02:56:42;5.00;1.00
15991;DHT22;8100;50.994;4.538;2024-02-23T02:59:29;5.00;1.00
15991;DHT22;8100;50.994;4.538;2024-02-23T03:02:18;4.90;1.00
15991;DHT22;8100;50.994;4.538;2024-02-23T03:05:06;4.90;1.00
15991;DHT22;8100;50.994;4.538;2024-02-23T03:07:53;5.00;1.00
15991;DHT22;8100;50.994;4.538;2024-02-23T03:10:40;5.10;1.00
15991;DHT22;8100;50.994;4.538;2024-02-23T03:13:26;5.10;1.00
15991;DHT22;8100;50.994;4.538;2024-02-23T03:16:15;5.20;1.00
15991;DHT22;8100;50.994;4.538;2024-02-23T03:19:03;5.10;1.00
15991;DHT22;8100;50.994;4.538;2024-02-23T03:21:50;5.10;1.00
15991;DHT22;8100;50.994;4.538;2024-02-23T03:24:37;5.10;1.00
15991;DHT22;8100;50.994;4.538;2024-02-23T03:27:28;5.10;1.00
15991;DHT22;8100;50.994;4.538;2024-02-23T03:30:15;5.10;1.00
15991;DHT22;8100;50.994;4.538;2024-02-23T03:33:02;5.10;1.00
15991;DHT22;8100;50.994;4.538;2024-02-23T03:35:51;5.10;1.00
15991;DHT22;8100;50.994;4.538;2024-02-23T03:38:37;5.10;1.00
15991;DHT22;8100;50.994;4.538;2024-02-23T03:41:24;5.20;1.00
15991;DHT22;8100;50.994;4.538;2024-02-23T03:44:11;5.20;1.00
15991;DHT22;8100;50.994;4.538;2024-02-23T03:46:58;5.20;1.00
15991;DHT22;8100;50.994;4.538;2024-02-23T03:49:45;5.20;1.00
15991;DHT22;8100;50.994;4.538;2024-02-23T03:52:33;5.20;1.00
15991;DHT22;8100;50.994;4.538;2024-02-23T03:55:20;5.30;1.00
15991;DHT22;8100;50.994;4.538;2024-02-23T03:58:07;5.30;1.00
15991;DHT22;8100;50.994;4.538;2024-02-23T04:00:54;5.40;1.00
15991;DHT22;8100;50.994;4.538;2024-02-23T04:03:41;5.40;1.00
15991;DHT22;8100;50.994;4.538;2024-02-23T04:06:28;5.50;1.00
15991;DHT22;8100;50.994;4.538;2024-02-23T04:09:16;5.50;1.00
15991;DHT22;8100;50.994;4.538;2024-02-23T04:12:04;5.50;1.00
15991;DHT22;8100;50.994;4.538;2024-02-23T04:14:52;5.50;1.00
15991;DHT22;8100;50.994;4.538;2024-02-23T04:17:39;5.50;1.00
15991;DHT22;8100;50.994;4.538;2024-02-23T04:20:26;5.60;1.00
15991;DHT22;8100;50.994;4.538;2024-02-23T04:23:13;5.60;1.00
15991;DHT22;8100;50.994;4.538;2024-02-23T04:26:01;5.60;1.00
15991;DHT22;8100;50.994;4.538;2024-02-23T04:28:48;5.60;1.00
15991;DHT22;8100;50.994;4.538;2024-02-23T04:31:36;5.60;1.00
15991;DHT22;8100;50.994;4.538;2024-02-23T04:34:23;5.60;1.00
15991;DHT22;8100;50.994;4.538;2024-02-23T04:37:10;5.60;1.00
15991;DHT22;8100;50.994;4.538;2024-02-23T04:39:57;5.70;1.00
15991;DHT22;8100;50.994;4.538;2024-02-23T04:42:45;5.70;1.00
15991;DHT22;8100;50.994;4.538;2024-02-23T04:45:33;5.60;1.00
15991;DHT22;8100;50.994;4.538;2024-02-23T04:48:19;5.60;1.00
15991;DHT22;8100;50.994;4.538;2024-02-23T04:51:06;5.60;1.00
15991;DHT22;8100;50.994;4.538;2024-02-23T04:53:55;5.60;1.00
15991;DHT22;8100;50.994;4.538;2024-02-23T04:56:42;5.60;1.00
15991;DHT22;8100;50.994;4.538;2024-02-23T04:59:30;5.60;1.00
15991;DHT22;8100;50.994;4.538;2024-02-23T05:02:18;5.50;1.00
15991;DHT22;8100;50.994;4.538;2024-02-23T05:05:05;5.50;1.00
15991;DHT22;8100;50.994;4.538;2024-02-23T05:07:52;5.50;1.00
15991;DHT22;8100;50.994;4.538;2024-02-23T05:10:39;5.50;1.00
15991;DHT22;8100;50.994;4.538;2024-02-23T05:13:26;5.60;1.00
15991;DHT22;8100;50.994;4.538;2024-02-23T05:16:15;5.60;1.00
15991;DHT22;8100;50.994;4.538;2024-02-23T05:19:02;5.70;1.00
15991;DHT22;8100;50.994;4.538;2024-02-23T05:21:49;5.60;1.00
15991;DHT22;8100;50.994;4.538;2024-02-23T05:24:35;5.70;1.00
15991;DHT22;8100;50.994;4.538;2024-02-23T05:27:22;5.70;1.00
15991;DHT22;8100;50.994;4.538;2024-02-23T05:30:10;5.60;1.00
15991;DHT22;8100;50.994;4.538;2024-02-23T05:32:59;5.60;1.00
15991;DHT22;8100;50.994;4.538;2024-02-23T05:35:48;5.60;1.00
15991;DHT22;8100;50.994;4.538;2024-02-23T05:38:35;5.70;1.00
15991;DHT22;8100;50.994;4.538;2024-02-23T05:41:22;5.70;1.00
15991;DHT22;8100;50.994;4.538;2024-02-23T05:44:09;5.70;1.00
15991;DHT22;8100;50.994;4.538;2024-02-23T05:46:56;5.70;1.00
15991;DHT22;8100;50.994;4.538;2024-02-23T05:49:44;5.70;1.00
15991;DHT22;8100;50.994;4.538;2024-02-23T05:52:31;5.60;1.00
15991;DHT22;8100;50.994;4.538;2024-02-23T05:55:18;5.60;1.00
15991;DHT22;8100;50.994;4.538;2024-02-23T05:58:06;5.60;1.00
15991;DHT22;8100;50.994;4.538;2024-02-23T06:00:53;5.60;1.00
15991;DHT22;8100;50.994;4.538;2024-02-23T06:03:39;5.70;99.90
15991;DHT22;8100;50.994;4.538;2024-02-23T06:06:28;5.70;99.90
15991;DHT22;8100;50.994;4.538;2024-02-23T06:09:16;5.70;99.90
15991;DHT22;8100;50.994;4.538;2024-02-23T06:12:05;5.60;99.90
15991;DHT22;8100;50.994;4.538;2024-02-23T06:14:52;5.70;99.90
15991;DHT22;8100;50.994;4.538;2024-02-23T06:17:41;5.60;99.90
15991;DHT22;8100;50.994;4.538;2024-02-23T06:20:28;5.60;99.90
15991;DHT22;8100;50.994;4.538;2024-02-23T06:23:17;5.70;99.90
15991;DHT22;8100;50.994;4.538;2024-02-23T06:26:04;5.60;99.90
15991;DHT22;8100;50.994;4.538;2024-02-23T06:28:51;5.60;99.90
15991;DHT22;8100;50.994;4.538;2024-02-23T06:31:38;5.70;99.90
15991;DHT22;8100;50.994;4.538;2024-02-23T06:34:25;5.60;99.90
15991;DHT22;8100;50.994;4.538;2024-02-23T06:37:12;5.70;99.90
15991;DHT22;8100;50.994;4.538;2024-02-23T06:40:00;5.70;99.90
15991;DHT22;8100;50.994;4.538;2024-02-23T06:42:47;5.70;99.90
15991;DHT22;8100;50.994;4.538;2024-02-23T06:45:36;5.70;99.90
15991;DHT22;8100;50.994;4.538;2024-02-23T06:48:23;5.80;99.90
15991;DHT22;8100;50.994;4.538;2024-02-23T06:51:11;5.80;99.90
15991;DHT22;8100;50.994;4.538;2024-02-23T06:53:58;5.80;99.90
15991;DHT22;8100;50.994;4.538;2024-02-23T06:56:46;5.80;99.90
15991;DHT22;8100;50.994;4.538;2024-02-23T06:59:33;5.90;99.90
15991;DHT22;8100;50.994;4.538;2024-02-23T07:02:21;5.90;99.90
15991;DHT22;8100;50.994;4.538;2024-02-23T07:05:08;5.90;99.90
15991;DHT22;8100;50.994;4.538;2024-02-23T07:07:55;5.90;99.90
15991;DHT22;8100;50.994;4.538;2024-02-23T07:10:42;6.00;99.90
15991;DHT22;8100;50.994;4.538;2024-02-23T07:13:30;5.90;99.90
15991;DHT22;8100;50.994;4.538;2024-02-23T07:16:18;6.00;99.90
15991;DHT22;8100;50.994;4.538;2024-02-23T07:19:05;6.00;99.90
15991;DHT22;8100;50.994;4.538;2024-02-23T07:21:52;6.00;99.90
15991;DHT22;8100;50.994;4.538;2024-02-23T07:24:39;6.00;99.90
15991;DHT22;8100;50.994;4.538;2024-02-23T07:27:26;6.00;99.90
15991;DHT22;8100;50.994;4.538;2024-02-23T07:30:15;6.00;99.90
15991;DHT22;8100;50.994;4.538;2024-02-23T07:33:03;6.00;99.90
15991;DHT22;8100;50.994;4.538;2024-02-23T07:35:50;6.00;99.90
15991;DHT22;8100;50.994;4.538;2024-02-23T07:38:37;6.00;99.90
15991;DHT22;8100;50.994;4.538;2024-02-23T07:41:24;6.10;99.90
15991;DHT22;8100;50.994;4.538;2024-02-23T07:44:11;6.10;99.90
15991;DHT22;8100;50.994;4.538;2024-02-23T07:46:59;6.20;99.90
15991;DHT22;8100;50.994;4.538;2024-02-23T07:49:46;6.20;99.90
15991;DHT22;8100;50.994;4.538;2024-02-23T07:52:33;6.30;99.90
15991;DHT22;8100;50.994;4.538;2024-02-23T07:55:20;6.30;99.90
15991;DHT22;8100;50.994;4.538;2024-02-23T07:58:07;6.40;99.90
15991;DHT22;8100;50.994;4.538;2024-02-23T08:00:54;6.40;99.90
15991;DHT22;8100;50.994;4.538;2024-02-23T08:03:43;6.50;99.90
15991;DHT22;8100;50.994;4.538;2024-02-23T08:06:30;6.50;99.90
15991;DHT22;8100;50.994;4.538;2024-02-23T08:09:17;6.40;99.90
15991;DHT22;8100;50.994;4.538;2024-02-23T08:12:05;6.50;99.90
15991;DHT22;8100;50.994;4.538;2024-02-23T08:14:52;6.50;99.90
15991;DHT22;8100;50.994;4.538;2024-02-23T08:17:39;6.50;99.90
15991;DHT22;8100;50.994;4.538;2024-02-23T08:20:28;6.50;99.90
15991;DHT22;8100;50.994;4.538;2024-02-23T08:23:15;6.50;99.90
15991;DHT22;8100;50.994;4.538;2024-02-23T08:26:02;6.40;99.90
15991;DHT22;8100;50.994;4.538;2024-02-23T08:28:49;6.30;1.00
15991;DHT22;8100;50.994;4.538;2024-02-23T08:31:36;6.10;1.00
15991;DHT22;8100;50.994;4.538;2024-02-23T08:34:23;6.00;1.00
15991;DHT22;8100;50.994;4.538;2024-02-23T08:37:11;5.90;1.00
15991;DHT22;8100;50.994;4.538;2024-02-23T08:39:58;5.80;1.00
15991;DHT22;8100;50.994;4.538;2024-02-23T08:42:46;5.70;1.00
15991;DHT22;8100;50.994;4.538;2024-02-23T08:45:35;5.60;99.90
15991;DHT22;8100;50.994;4.538;2024-02-23T08:48:22;5.50;1.00
15991;DHT22;8100;50.994;4.538;2024-02-23T08:51:09;5.50;1.00
15991;DHT22;8100;50.994;4.538;2024-02-23T08:53:57;5.30;1.00
15991;DHT22;8100;50.994;4.538;2024-02-23T08:56:48;5.30;1.00
15991;DHT22;8100;50.994;4.538;2024-02-23T08:59:35;5.40;1.00
15991;DHT22;8100;50.994;4.538;2024-02-23T09:02:22;5.50;1.00
15991;DHT22;8100;50.994;4.538;2024-02-23T09:05:09;5.50;1.00
15991;DHT22;8100;50.994;4.538;2024-02-23T09:07:57;5.50;99.90
15991;DHT22;8100;50.994;4.538;2024-02-23T09:10:45;5.50;1.00
15991;DHT22;8100;50.994;4.538;2024-02-23T09:13:32;5.50;99.90
15991;DHT22;8100;50.994;4.538;2024-02-23T09:16:19;5.60;1.00
15991;DHT22;8100;50.994;4.538;2024-02-23T09:19:08;5.60;99.90
15991;DHT22;8100;50.994;4.538;2024-02-23T09:21:55;5.70;99.90
15991;DHT22;8100;50.994;4.538;2024-02-23T09:24:43;5.70;99.90
15991;DHT22;8100;50.994;4.538;2024-02-23T09:27:31;5.80;1.00
15991;DHT22;8100;50.994;4.538;2024-02-23T09:30:19;5.80;1.00
15991;DHT22;8100;50.994;4.538;2024-02-23T09:33:06;6.00;1.00
15991;DHT22;8100;50.994;4.538;2024-02-23T09:35:53;6.10;1.00
15991;DHT22;8100;50.994;4.538;2024-02-23T09:38:40;6.30;1.00
15991;DHT22;8100;50.994;4.538;2024-02-23T09:41:27;6.30;1.00
15991;DHT22;8100;50.994;4.538;2024-02-23T09:44:15;6.40;1.00
15991;DHT22;8100;50.994;4.538;2024-02-23T09:47:06;6.50;99.90
15991;DHT22;8100;50.994;4.538;2024-02-23T09:49:56;6.70;99.90
15991;DHT22;8100;50.994;4.538;2024-02-23T09:52:42;6.90;99.90
15991;DHT22;8100;50.994;4.538;2024-02-23T09:55:31;7.00;99.90
15991;DHT22;8100;50.994;4.538;2024-02-23T09:58:18;6.90;1.00
15991;DHT22;8100;50.994;4.538;2024-02-23T10:01:07;6.90;1.00
15991;DHT22;8100;50.994;4.538;2024-02-23T10:03:57;7.10;1.00
15991;DHT22;8100;50.994;4.538;2024-02-23T10:06:45;7.10;1.00
15991;DHT22;8100;50.994;4.538;2024-02-23T10:09:32;7.30;1.00
15991;DHT22;8100;50.994;4.538;2024-02-23T10:12:19;7.30;1.00
15991;DHT22;8100;50.994;4.538;2024-02-23T10:15:06;7.40;1.00
15991;DHT22;8100;50.994;4.538;2024-02-23T10:17:55;7.40;1.00
15991;DHT22;8100;50.994;4.538;2024-02-23T10:20:42;7.70;1.00
15991;DHT22;8100;50.994;4.538;2024-02-23T10:23:29;7.60;1.00
15991;DHT22;8100;50.994;4.538;2024-02-23T10:26:16;7.50;1.00
15991;DHT22;8100;50.994;4.538;2024-02-23T10:29:04;7.50;1.00
15991;DHT22;8100;50.994;4.538;2024-02-23T10:31:52;7.50;1.00
15991;DHT22;8100;50.994;4.538;2024-02-23T10:34:43;7.40;1.00
15991;DHT22;8100;50.994;4.538;2024-02-23T10:37:30;7.40;1.00
15991;DHT22;8100;50.994;4.538;2024-02-23T10:40:19;7.40;1.00
15991;DHT22;8100;50.994;4.538;2024-02-23T10:43:12;7.60;1.00
15991;DHT22;8100;50.994;4.538;2024-02-23T10:45:59;7.80;1.00
15991;DHT22;8100;50.994;4.538;2024-02-23T10:48:48;7.80;1.00
15991;DHT22;8100;50.994;4.538;2024-02-23T10:51:38;7.90;1.00
15991;DHT22;8100;50.994;4.538;2024-02-23T10:54:26;8.00;1.00
15991;DHT22;8100;50.994;4.538;2024-02-23T10:57:13;8.00;1.00
15991;DHT22;8100;50.994;4.538;2024-02-23T11:00:01;7.80;1.00
15991;DHT22;8100;50.994;4.538;2024-02-23T11:02:52;7.90;1.00
15991;DHT22;8100;50.994;4.538;2024-02-23T11:05:40;7.80;99.90
15991;DHT22;8100;50.994;4.538;2024-02-23T11:08:29;7.90;99.90
15991;DHT22;8100;50.994;4.538;2024-02-23T11:11:17;7.90;99.90
15991;DHT22;8100;50.994;4.538;2024-02-23T11:14:07;7.80;99.90
15991;DHT22;8100;50.994;4.538;2024-02-23T11:16:55;7.90;99.90
15991;DHT22;8100;50.994;4.538;2024-02-23T11:19:46;8.00;99.90
15991;DHT22;8100;50.994;4.538;2024-02-23T11:22:36;8.00;99.90
15991;DHT22;8100;50.994;4.538;2024-02-23T11:25:29;8.10;99.90
15991;DHT22;8100;50.994;4.538;2024-02-23T11:28:24;8.20;99.90
15991;DHT22;8100;50.994;4.538;2024-02-23T11:31:12;8.20;99.90
15991;DHT22;8100;50.994;4.538;2024-02-23T11:33:59;8.10;99.90
15991;DHT22;8100;50.994;4.538;2024-02-23T11:36:51;8.30;99.90
15991;DHT22;8100;50.994;4.538;2024-02-23T11:39:38;8.40;99.90
15991;DHT22;8100;50.994;4.538;2024-02-23T11:42:27;8.30;99.90
15991;DHT22;8100;50.994;4.538;2024-02-23T11:45:14;8.20;99.90
15991;DHT22;8100;50.994;4.538;2024-02-23T11:48:01;8.30;99.90
15991;DHT22;8100;50.994;4.538;2024-02-23T11:50:48;8.10;99.90
15991;DHT22;8100;50.994;4.538;2024-02-23T11:53:36;8.10;99.90
15991;DHT22;8100;50.994;4.538;2024-02-23T11:56:23;8.00;99.90
15991;DHT22;8100;50.994;4.538;2024-02-23T11:59:11;8.00;99.90
15991;DHT22;8100;50.994;4.538;2024-02-23T12:01:59;7.90;99.90
15991;DHT22;8100;50.994;4.538;2024-02-23T12:04:46;7.90;99.90
15991;DHT22;8100;50.994;4.538;2024-02-23T12:07:33;7.80;99.90
15991;DHT22;8100;50.994;4.538;2024-02-23T12:10:21;7.90;99.90
15991;DHT22;8100;50.994;4.538;2024-02-23T12:13:08;7.90;99.90
15991;DHT22;8100;50.994;4.538;2024-02-23T12:15:57;8.00;99.90
15991;DHT22;8100;50.994;4.538;2024-02-23T12:18:44;8.00;99.90
15991;DHT22;8100;50.994;4.538;2024-02-23T12:21:34;7.90;99.90
15991;DHT22;8100;50.994;4.538;2024-02-23T12:24:21;7.90;99.90
15991;DHT22;8100;50.994;4.538;2024-02-23T12:27:11;8.00;99.90
15991;DHT22;8100;50.994;4.538;2024-02-23T12:30:03;8.00;99.90
15991;DHT22;8100;50.994;4.538;2024-02-23T12:32:51;8.00;99.90
15991;DHT22;8100;50.994;4.538;2024-02-23T12:35:39;8.10;99.90
15991;DHT22;8100;50.994;4.538;2024-02-23T12:38:26;8.30;99.90
15991;DHT22;8100;50.994;4.538;2024-02-23T12:41:13;8.30;99.90
15991;DHT22;8100;50.994;4.538;2024-02-23T12:44:00;8.40;99.90
15991;DHT22;8100;50.994;4.538;2024-02-23T12:46:47;8.50;99.90
15991;DHT22;8100;50.994;4.538;2024-02-23T12:49:35;8.60;99.90
15991;DHT22;8100;50.994;4.538;2024-02-23T12:52:22;8.60;99.90
15991;DHT22;8100;50.994;4.538;2024-02-23T12:55:09;8.50;99.90
15991;DHT22;8100;50.994;4.538;2024-02-23T12:57:56;8.40;99.90
15991;DHT22;8100;50.994;4.538;2024-02-23T13:00:43;8.40;99.90
15991;DHT22;8100;50.994;4.538;2024-02-23T13:03:30;8.50;99.90
15991;DHT22;8100;50.994;4.538;2024-02-23T13:06:18;8.60;99.90
15991;DHT22;8100;50.994;4.538;2024-02-23T13:09:06;8.80;99.90
15991;DHT22;8100;50.994;4.538;2024-02-23T13:11:54;8.70;99.90
15991;DHT22;8100;50.994;4.538;2024-02-23T13:14:41;8.70;99.90
15991;DHT22;8100;50.994;4.538;2024-02-23T13:17:28;8.60;99.90
15991;DHT22;8100;50.994;4.538;2024-02-23T13:20:15;8.60;99.90
15991;DHT22;8100;50.994;4.538;2024-02-23T13:23:04;8.60;99.90
15991;DHT22;8100;50.994;4.538;2024-02-23T13:25:52;8.60;99.90
15991;DHT22;8100;50.994;4.538;2024-02-23T13:28:39;8.60;99.90
15991;DHT22;8100;50.994;4.538;2024-02-23T13:31:26;8.60;99.90
15991;DHT22;8100;50.994;4.538;2024-02-23T13:34:13;8.60;99.90
15991;DHT22;8100;50.994;4.538;2024-02-23T13:37:02;8.60;99.90
15991;DHT22;8100;50.994;4.538;2024-02-23T13:39:50;8.60;99.20
15991;DHT22;8100;50.994;4.538;2024-02-23T13:42:37;8.70;99.90
15991;DHT22;8100;50.994;4.538;2024-02-23T13:45:25;8.80;99.90
15991;DHT22;8100;50.994;4.538;2024-02-23T13:48:12;8.80;99.90
15991;DHT22;8100;50.994;4.538;2024-02-23T13:50:59;8.90;93.90
15991;DHT22;8100;50.994;4.538;2024-02-23T13:53:48;8.90;81.20
15991;DHT22;8100;50.994;4.538;2024-02-23T13:56:37;9.00;46.70
15991;DHT22;8100;50.994;4.538;2024-02-23T13:59:24;9.00;54.60
15991;DHT22;8100;50.994;4.538;2024-02-23T14:02:10;9.10;29.70
15991;DHT22;8100;50.994;4.538;2024-02-23T14:05:01;9.10;6.20
15991;DHT22;8100;50.994;4.538;2024-02-23T14:07:50;9.40;2.40
15991;DHT22;8100;50.994;4.538;2024-02-23T14:10:36;9.40;1.00
15991;DHT22;8100;50.994;4.538;2024-02-23T14:13:25;9.30;3.80
15991;DHT22;8100;50.994;4.538;2024-02-23T14:16:12;9.40;4.80
15991;DHT22;8100;50.994;4.538;2024-02-23T14:18:59;9.50;1.00
15991;DHT22;8100;50.994;4.538;2024-02-23T14:21:46;9.30;1.00
15991;DHT22;8100;50.994;4.538;2024-02-23T14:24:34;9.20;5.30
15991;DHT22;8100;50.994;4.538;2024-02-23T14:27:21;9.20;7.10
15991;DHT22;8100;50.994;4.538;2024-02-23T14:30:10;9.30;1.00
15991;DHT22;8100;50.994;4.538;2024-02-23T14:32:57;9.20;1.00
15991;DHT22;8100;50.994;4.538;2024-02-23T14:35:44;9.40;1.00
15991;DHT22;8100;50.994;4.538;2024-02-23T14:38:31;9.30;1.00
15991;DHT22;8100;50.994;4.538;2024-02-23T14:41:18;9.30;1.00
15991;DHT22;8100;50.994;4.538;2024-02-23T14:44:05;9.50;1.00
15991;DHT22;8100;50.994;4.538;2024-02-23T14:46:53;9.60;1.00
15991;DHT22;8100;50.994;4.538;2024-02-23T14:49:40;9.60;1.00
15991;DHT22;8100;50.994;4.538;2024-02-23T14:52:27;9.60;1.00
15991;DHT22;8100;50.994;4.538;2024-02-23T14:55:14;9.40;1.00
15991;DHT22;8100;50.994;4.538;2024-02-23T14:58:01;9.20;1.00
15991;DHT22;8100;50.994;4.538;2024-02-23T15:00:48;9.10;1.00
15991;DHT22;8100;50.994;4.538;2024-02-23T15:03:36;9.00;1.00
15991;DHT22;8100;50.994;4.538;2024-02-23T15:06:23;9.00;1.00
15991;DHT22;8100;50.994;4.538;2024-02-23T15:09:10;9.00;1.00
15991;DHT22;8100;50.994;4.538;2024-02-23T15:11:58;8.90;1.00
15991;DHT22;8100;50.994;4.538;2024-02-23T15:14:44;9.10;1.00
15991;DHT22;8100;50.994;4.538;2024-02-23T15:17:31;9.10;1.00
15991;DHT22;8100;50.994;4.538;2024-02-23T15:20:20;9.50;1.00
15991;DHT22;8100;50.994;4.538;2024-02-23T15:23:07;9.50;1.00
15991;DHT22;8100;50.994;4.538;2024-02-23T15:25:54;9.40;1.00
15991;DHT22;8100;50.994;4.538;2024-02-23T15:28:41;9.20;1.00
15991;DHT22;8100;50.994;4.538;2024-02-23T15:31:27;9.10;1.00
15991;DHT22;8100;50.994;4.538;2024-02-23T15:34:14;9.80;1.00
15991;DHT22;8100;50.994;4.538;2024-02-23T15:37:03;9.60;1.00
15991;DHT22;8100;50.994;4.538;2024-02-23T15:39:50;9.30;1.00
15991;DHT22;8100;50.994;4.538;2024-02-23T15:42:37;9.10;1.00
15991;DHT22;8100;50.994;4.538;2024-02-23T15:45:24;9.00;1.00
15991;DHT22;8100;50.994;4.538;2024-02-23T15:48:11;8.90;1.00
15991;DHT22;8100;50.994;4.538;2024-02-23T15:50:59;8.90;1.00
15991;DHT22;8100;50.994;4.538;2024-02-23T15:53:47;9.00;1.00
15991;DHT22;8100;50.994;4.538;2024-02-23T15:56:34;8.90;1.00
15991;DHT22;8100;50.994;4.538;2024-02-23T15:59:21;8.90;1.00
15991;DHT22;8100;50.994;4.538;2024-02-23T16:02:09;8.90;1.00
15991;DHT22;8100;50.994;4.538;2024-02-23T16:04:56;8.80;1.00
15991;DHT22;8100;50.994;4.538;2024-02-23T16:07:43;8.80;1.00
15991;DHT22;8100;50.994;4.538;2024-02-23T16:10:32;8.80;1.00
15991;DHT22;8100;50.994;4.538;2024-02-23T16:13:19;8.90;1.00
15991;DHT22;8100;50.994;4.538;2024-02-23T16:16:07;8.90;1.00
15991;DHT22;8100;50.994;4.538;2024-02-23T16:18:54;9.00;1.00
15991;DHT22;8100;50.994;4.538;2024-02-23T16:21:41;8.90;1.00
15991;DHT22;8100;50.994;4.538;2024-02-23T16:24:28;8.80;1.00
15991;DHT22;8100;50.994;4.538;2024-02-23T16:27:17;8.80;1.00
15991;DHT22;8100;50.994;4.538;2024-02-23T16:30:05;8.80;1.00
15991;DHT22;8100;50.994;4.538;2024-02-23T16:32:52;8.80;1.00
15991;DHT22;8100;50.994;4.538;2024-02-23T16:35:39;8.90;1.00
15991;DHT22;8100;50.994;4.538;2024-02-23T16:38:26;8.90;1.00
15991;DHT22;8100;50.994;4.538;2024-02-23T16:41:13;8.90;1.00
15991;DHT22;8100;50.994;4.538;2024-02-23T16:44:01;8.80;1.00
15991;DHT22;8100;50.994;4.538;2024-02-23T16:46:49;8.70;1.00
15991;DHT22;8100;50.994;4.538;2024-02-23T16:49:36;8.60;1.00
15991;DHT22;8100;50.994;4.538;2024-02-23T16:52:23;8.50;1.00
15991;DHT22;8100;50.994;4.538;2024-02-23T16:55:10;8.50;1.00
15991;DHT22;8100;50.994;4.538;2024-02-23T16:57:57;8.40;1.00
15991;DHT22;8100;50.994;4.538;2024-02-23T17:00:46;8.40;1.00
15991;DHT22;8100;50.994;4.538;2024-02-23T17:03:33;8.40;1.00
15991;DHT22;8100;50.994;4.538;2024-02-23T17:06:20;8.40;1.00
15991;DHT22;8100;50.994;4.538;2024-02-23T17:09:07;8.40;1.00
15991;DHT22;8100;50.994;4.538;2024-02-23T17:11:55;8.30;1.00
15991;DHT22;8100;50.994;4.538;2024-02-23T17:14:42;8.20;1.00
15991;DHT22;8100;50.994;4.538;2024-02-23T17:17:30;8.00;1.00
15991;DHT22;8100;50.994;4.538;2024-02-23T17:20:18;8.00;1.00
15991;DHT22;8100;50.994;4.538;2024-02-23T17:23:05;7.90;1.00
15991;DHT22;8100;50.994;4.538;2024-02-23T17:25:52;7.80;1.00
15991;DHT22;8100;50.994;4.538;2024-02-23T17:28:38;7.90;1.00
15991;DHT22;8100;50.994;4.538;2024-02-23T17:31:27;7.80;1.00
15991;DHT22;8100;50.994;4.538;2024-02-23T17:34:15;7.80;2.00
15991;DHT22;8100;50.994;4.538;2024-02-23T17:37:02;7.80;1.60
15991;DHT22;8100;50.994;4.538;2024-02-23T17:39:53;7.80;1.40
15991;DHT22;8100;50.994;4.538;2024-02-23T17:42:40;7.70;1.00
15991;DHT22;8100;50.994;4.538;2024-02-23T17:45:27;7.70;18.50
15991;DHT22;8100;50.994;4.538;2024-02-23T17:48:14;7.60;7.50
15991;DHT22;8100;50.994;4.538;2024-02-23T17:51:03;7.70;10.60
15991;DHT22;8100;50.994;4.538;2024-02-23T17:53:50;7.80;7.90
15991;DHT22;8100;50.994;4.538;2024-02-23T17:56:37;7.70;13.80
15991;DHT22;8100;50.994;4.538;2024-02-23T17:59:24;7.80;13.20
15991;DHT22;8100;50.994;4.538;2024-02-23T18:02:11;7.70;19.10
15991;DHT22;8100;50.994;4.538;2024-02-23T18:04:59;7.80;15.80
15991;DHT22;8100;50.994;4.538;2024-02-23T18:07:48;7.80;40.10
15991;DHT22;8100;50.994;4.538;2024-02-23T18:10:35;7.70;52.10
15991;DHT22;8100;50.994;4.538;2024-02-23T18:13:23;7.70;65.10
15991;DHT22;8100;50.994;4.538;2024-02-23T18:16:10;7.70;63.40
15991;DHT22;8100;50.994;4.538;2024-02-23T18:18:59;7.70;99.90
15991;DHT22;8100;50.994;4.538;2024-02-23T18:21:49;7.70;99.90
15991;DHT22;8100;50.994;4.538;2024-02-23T18:24:37;7.70;99.90